Time;durP1;ratioP1;P1;durP2;ratioP2;P2;SDS_P1;SDS_P2;PMS_P1;PMS_P2;Temp;Humidity;BMP_temperature;BMP_pressure;BME280_temperature;BME280_humidity;BME280_pressure;Samples;Min_cycle;Max_cycle;Signal;HPM_P1;HPM_P2
2023/03/12 00:03:55;;;;;;;3.35;2.03;;;;;;;2.09;77.69;97699.34;6007728;23;20031;-76
2023/03/12 00:08:15;;;;;;;1.98;1.27;;;;;;;2.42;77.12;97723.03;6022995;23;20063;-76
2023/03/12 00:16:47;;;;;;;2.35;1.83;;;;;;;2.47;77.39;97705.00;6009430;23;20102;-77
2023/03/12 00:25:13;;;;;;;4.10;2.50;;;;;;;2.35;78.08;97642.63;5995930;23;20079;-75
2023/03/12 00:29:38;;;;;;;3.72;2.45;;;;;;;2.65;77.83;97668.03;5939823;24;20032;-75
2023/03/12 00:33:28;;;;;;;4.75;3.35;;;;;;;2.71;78.12;97660.22;5879885;24;20032;-76
2023/03/12 00:36:02;;;;;;;4.68;2.53;;;;;;;2.65;77.83;97657.75;5963871;23;20032;-75
2023/03/12 00:40:09;;;;;;;7.60;3.78;;;;;;;2.75;77.59;97655.94;5996616;23;20027;-75
2023/03/12 00:43:52;;;;;;;6.20;3.88;;;;;;;2.75;77.79;97640.53;5988756;23;20027;-75
2023/03/12 00:48:00;;;;;;;7.72;4.00;;;;;;;2.83;77.92;97636.13;6007870;23;20107;-75
2023/03/12 00:52:26;;;;;;;6.88;3.83;;;;;;;2.93;78.45;97632.59;5986303;23;20106;-77
2023/03/12 00:55:52;;;;;;;7.85;4.28;;;;;;;3.01;78.67;97640.19;6006563;23;20031;-76
2023/03/12 00:58:28;;;;;;;8.95;4.85;;;;;;;3.04;78.45;97616.16;6039667;23;20101;-74
2023/03/12 01:01:44;;;;;;;9.50;5.10;;;;;;;3.13;78.62;97613.47;6030311;23;20371;-77
2023/03/12 01:05:52;;;;;;;9.32;4.53;;;;;;;3.06;78.46;97599.88;6054310;23;20105;-75
2023/03/12 01:09:57;;;;;;;10.55;4.78;;;;;;;3.22;78.73;97585.06;5932662;23;20022;-74
2023/03/12 01:21:49;;;;;;;10.65;5.15;;;;;;;3.39;78.75;97579.66;5992148;23;20028;-74
2023/03/12 01:25:40;;;;;;;12.80;5.85;;;;;;;3.29;78.94;97558.41;5942834;24;20032;-74
2023/03/12 01:33:23;;;;;;;10.02;5.47;;;;;;;3.57;79.08;97557.97;5950304;24;20031;-77
2023/03/12 01:37:19;;;;;;;12.18;5.68;;;;;;;3.61;78.51;97557.03;6055184;23;20380;-74
2023/03/12 01:40:12;;;;;;;9.73;5.35;;;;;;;3.58;78.23;97554.53;6070333;23;20026;-76
2023/03/12 01:44:03;;;;;;;13.85;5.78;;;;;;;3.53;78.80;97532.34;6073169;23;20082;-76
2023/03/12 01:47:44;;;;;;;12.13;5.75;;;;;;;3.67;78.90;97538.06;6090743;23;20026;-74
2023/03/12 01:55:38;;;;;;;8.38;4.75;;;;;;;3.76;78.65;97544.78;6095212;23;20105;-75
2023/03/12 01:59:37;;;;;;;8.95;5.32;;;;;;;3.73;78.66;97516.53;6051515;23;20030;-76
2023/03/12 02:03:58;;;;;;;11.68;5.05;;;;;;;3.81;79.38;97522.41;6092416;23;20109;-74
2023/03/12 02:07:28;;;;;;;11.10;5.20;;;;;;;3.85;78.41;97500.03;6092929;23;20386;-74
2023/03/12 02:11:11;;;;;;;9.23;4.53;;;;;;;3.53;78.81;97455.19;6067802;23;20034;-75
2023/03/12 02:15:02;;;;;;;7.13;4.47;;;;;;;3.83;79.07;97484.63;6072302;23;20165;-75
2023/03/12 02:18:05;;;;;;;7.18;4.55;;;;;;;3.90;79.22;97496.50;6070030;23;20447;-77
2023/03/12 02:21:54;;;;;;;7.88;4.97;;;;;;;3.94;79.07;97483.56;6096074;23;20030;-75
2023/03/12 02:25:53;;;;;;;7.78;4.40;;;;;;;3.80;78.47;97469.25;5981451;24;20035;-74
2023/03/12 02:29:54;;;;;;;8.20;4.47;;;;;;;3.92;79.28;97463.03;5958130;24;20461;-74
2023/03/12 02:33:37;;;;;;;7.82;4.47;;;;;;;4.00;78.94;97445.69;6009004;23;20047;-74
2023/03/12 02:36:42;;;;;;;6.10;3.47;;;;;;;3.93;78.94;97439.00;5938357;23;20034;-75
2023/03/12 02:39:40;;;;;;;8.77;4.60;;;;;;;3.87;79.06;97414.19;5985842;23;20031;-75
2023/03/12 02:43:17;;;;;;;8.70;3.70;;;;;;;3.99;79.14;97466.31;5996606;23;20095;-75
2023/03/12 02:46:33;;;;;;;9.27;4.75;;;;;;;3.97;79.07;97430.34;6055917;23;20463;-76
2023/03/12 02:50:05;;;;;;;8.18;4.38;;;;;;;4.00;78.94;97430.25;6070173;23;20030;-75
2023/03/12 02:53:43;;;;;;;5.90;4.03;;;;;;;4.02;79.19;97423.34;6097725;23;20021;-74
2023/03/12 02:57:55;;;;;;;6.95;4.00;;;;;;;4.11;79.30;97400.88;6094679;23;20023;-75
2023/03/12 03:00:54;;;;;;;7.22;3.88;;;;;;;4.15;79.02;97393.06;6068127;23;20530;-74
2023/03/12 03:04:30;;;;;;;6.00;4.28;;;;;;;4.20;78.91;97392.94;6095227;23;20018;-74
2023/03/12 03:08:14;;;;;;;7.60;4.18;;;;;;;4.27;79.47;97385.97;6076495;23;20195;-74
2023/03/12 03:11:01;;;;;;;7.55;4.50;;;;;;;4.19;78.83;97368.94;6076728;23;20030;-74
2023/03/12 03:13:33;;;;;;;7.93;4.43;;;;;;;4.28;78.96;97382.50;6025776;23;20030;-75
2023/03/12 03:16:50;;;;;;;10.45;4.20;;;;;;;4.13;78.83;97350.22;6077411;23;20026;-75
2023/03/12 03:20:01;;;;;;;8.23;4.57;;;;;;;4.30;79.02;97371.28;6051888;23;20067;-73
2023/03/12 03:24:36;;;;;;;8.05;4.93;;;;;;;4.27;79.76;97350.75;6043669;23;20050;-73
2023/03/12 03:27:48;;;;;;;8.00;4.65;;;;;;;4.30;78.84;97373.03;6058602;23;20106;-73
2023/03/12 03:31:37;;;;;;;9.20;5.15;;;;;;;4.33;79.18;97358.34;6037891;23;20031;-74
2023/03/12 03:35:25;;;;;;;10.88;5.53;;;;;;;4.35;78.98;97351.44;6029893;23;20023;-74
2023/03/12 03:39:31;;;;;;;10.85;5.70;;;;;;;4.42;79.17;97361.56;6036823;23;20134;-74
2023/03/12 03:43:12;;;;;;;8.98;5.78;;;;;;;4.36;79.24;97334.25;5949775;23;20091;-75
2023/03/12 03:46:38;;;;;;;15.00;6.53;;;;;;;4.44;79.44;97329.75;6035917;23;20118;-75
2023/03/12 03:50:21;;;;;;;10.30;5.80;;;;;;;4.50;79.23;97321.03;6019564;23;20027;-76
2023/03/12 03:53:09;;;;;;;14.00;6.22;;;;;;;4.58;79.65;97316.56;6036757;23;20026;-74
2023/03/12 03:55:38;;;;;;;10.05;5.82;;;;;;;4.62;79.38;97309.59;6038086;23;20030;-75
2023/03/12 03:58:58;;;;;;;14.27;6.68;;;;;;;4.66;78.74;97308.63;6070023;23;20030;-75
2023/03/12 04:02:45;;;;;;;13.82;6.25;;;;;;;4.64;79.26;97288.06;6096632;23;20082;-75
2023/03/12 04:05:44;;;;;;;;;;;;;;;4.77;78.84;97283.44;6070088;23;20029;-74
2023/03/12 04:09:35;;;;;;;;;;;;;;;4.70;79.19;97281.06;6094876;23;19995;-75
2023/03/12 04:12:10;;;;;;;;;;;;;;;4.70;79.50;97273.34;6097197;23;19917;-75
2023/03/12 04:14:45;;;;;;;;;;;;;;;4.72;78.92;97282.72;6071677;23;19944;-77
2023/03/12 04:18:05;;;;;;;;;;;;;;;4.74;79.33;97285.25;6072067;23;19932;-75
2023/03/12 04:26:43;;;;;;;;;;;;;;;4.84;79.66;97263.53;6064503;23;19918;-74
2023/03/12 04:30:33;;;;;;;;;;;;;;;4.85;79.90;97249.75;6077226;23;20330;-76
2023/03/12 04:34:04;;;;;;;;;;;;;;;4.97;79.83;97248.56;6036818;23;19989;-74
2023/03/12 04:40:43;;;;;;;;;;;;;;;5.05;79.59;97238.06;5995310;23;19960;-74
2023/03/12 04:43:52;;;;;;;;;;;;;;;4.98;78.91;97240.81;6029689;23;19983;-77
2023/03/12 04:47:33;;;;;;;;;;;;;;;5.04;79.43;97228.66;6008102;23;19933;-76
2023/03/12 04:51:03;;;;;;;;;;;;;;;5.08;79.73;97227.66;6008014;23;19918;-74
2023/03/12 04:54:42;;;;;;;;;;;;;;;5.15;79.47;97215.47;6008412;23;20346;-75
2023/03/12 04:58:06;;;;;;;;;;;;;;;5.19;79.98;97230.78;5981593;23;19930;-77
2023/03/12 05:01:37;;;;;;;;;;;;;;;5.27;79.83;97243.47;6031685;23;19945;-75
2023/03/12 05:12:04;;;;;;;;;;;;;;;5.34;79.20;97206.31;6065045;23;19922;-75
2023/03/12 05:16:07;;;;;;;;;;;;;;;5.31;79.65;97213.25;6035272;23;20358;-75
2023/03/12 05:19:48;;;;;;;;;;;;;;;5.34;79.43;97200.28;6067992;23;20325;-76
2023/03/12 05:27:02;;;;;;;;;;;;;;;5.37;79.38;97198.47;5980014;24;20026;-74
2023/03/12 05:29:34;;;;;;;;;;;;;;;5.35;79.88;97197.69;5978858;24;19918;-77
2023/03/12 05:32:15;;;;;;;;;;;;;;;5.38;80.19;97191.56;5956996;24;20016;-75
2023/03/12 05:35:38;;;;;;;;;;;;;;;5.43;80.02;97195.69;5959234;24;20274;-74
2023/03/12 05:38:30;;;;;;;;;;;;;;;5.52;80.27;97175.69;5957785;24;19945;-76
2023/03/12 05:41:11;;;;;;;;;;;;;;;5.56;80.12;97178.13;5956778;24;20306;-76
2023/03/12 05:43:40;;;;;;;;;;;;;;;5.62;80.61;97169.38;5956563;24;19918;-74
2023/03/12 05:46:13;;;;;;;;;;;;;;;5.63;80.06;97175.34;5980232;24;20354;-75
2023/03/12 05:50:08;;;;;;;;;;;;;;;5.67;80.13;97161.47;5973184;24;20010;-75
2023/03/12 05:53:59;;;;;;;;;;;;;;;5.69;80.14;97160.53;5996407;23;19970;-75
2023/03/12 05:57:22;;;;;;;;;;;;;;;5.78;80.06;97176.63;5981690;24;19918;-76
2023/03/12 06:08:57;;;;;;;;;;;;;;;5.90;79.81;97147.81;6045623;23;20337;-73
2023/03/12 06:17:04;;;;;;;;;;;;;;;6.02;79.86;97149.19;5954951;24;19923;-75
2023/03/12 06:20:42;;;;;;;;;;;;;;;6.07;79.85;97160.22;5933338;24;19963;-74
2023/03/12 06:24:15;;;;;;;;;;;;;;;6.14;80.04;97137.63;5898652;24;20010;-77
2023/03/12 06:28:27;;;;;;;;;;;;;;;6.20;80.13;97136.56;5898338;24;19983;-79
2023/03/12 06:32:26;;;;;;;;;;;;;;;6.18;79.89;97136.63;5953843;24;19919;-74
2023/03/12 06:36:13;;;;;;;;;;;;;;;6.19;79.57;97140.91;5863915;24;19919;-74
2023/03/12 06:44:05;;;;;;;;;;;;;;;6.29;80.18;97097.53;5845617;24;19992;-76
2023/03/12 06:46:37;;;;;;;;;;;;;;;6.38;80.31;97101.53;5850784;24;20311;-75
2023/03/12 06:53:42;;;;;;;;;;;;;;;6.33;79.69;97110.28;5953125;24;20299;-77
2023/03/12 06:57:38;;;;;;;;;;;;;;;6.39;80.34;97108.38;5953447;24;19987;-75
2023/03/12 07:21:55;;;;;;;;;;;;;;;6.46;79.73;97060.78;5925790;24;19930;-76
2023/03/12 07:41:21;;;;;;;;;;;;;;;6.58;80.06;97049.16;6066159;23;20013;-75
2023/03/12 07:45:26;;;;;;;;;;;;;;;6.55;79.72;97032.00;6009770;23;19954;-75
2023/03/12 07:52:31;;;;;;;;;;;;;;;6.51;79.51;97022.69;6009793;23;20216;-76
2023/03/12 08:00:12;;;;;;;;;;;;;;;6.51;79.88;97014.09;5938577;24;19922;-74
2023/03/12 08:04:26;;;;;;;;;;;;;;;6.46;80.12;97025.44;5948880;24;19925;-78
2023/03/12 08:08:49;;;;;;;;;;;;;;;6.37;78.98;97017.19;5897761;24;20334;-76
2023/03/12 08:12:41;;;;;;;;;;;;;;;6.21;80.07;96986.75;5897246;24;19961;-77
2023/03/12 08:25:52;;;;;;;;;;;;;;;6.08;80.89;96977.75;5843654;24;19920;-78
2023/03/12 08:38:06;;;;;;;;;;;;;;;6.10;80.78;96938.09;5843664;24;19981;-78
2023/03/12 08:45:14;;;;;;;;;;;;;;;6.05;82.18;96915.94;5876904;24;20221;-77
2023/03/12 08:49:49;;;;;;;;;;;;;;;6.12;81.99;96931.13;5840038;24;19920;-76
2023/03/12 08:57:19;;;;;;;;;;;;;;;6.03;82.20;96911.66;5867110;24;19927;-76
2023/03/12 09:01:19;;;;;;;;;;;;;;;6.01;82.00;96908.28;5865780;24;19976;-78
2023/03/12 09:05:36;;;;;;;;;;;;;;;6.00;81.86;96911.78;5870573;24;19927;-79
2023/03/12 09:13:59;;;;;;;;;;;;;;;6.02;82.08;96891.03;5870153;24;20292;-78
2023/03/12 09:30:30;;;;;;;;;;;;;;;6.07;82.84;96888.31;5776532;24;19928;-77
2023/03/12 09:59:46;;;;;;;;;;;;;;;6.02;83.20;96818.75;5951199;24;19927;-78
2023/03/12 10:03:56;;;;;;;;;;;;;;;6.01;83.58;96810.19;5816143;24;19925;-76
2023/03/12 10:07:55;;;;;;;;;;;;;;;6.05;83.91;96810.09;5813521;24;19948;-75
2023/03/12 10:25:02;;;;;;;;;;;;;;;6.02;84.48;96780.03;5910012;24;19931;-76
2023/03/12 10:28:53;;;;;;;;;;;;;;;6.03;84.22;96782.59;5896924;24;20060;-78
2023/03/12 10:33:13;;;;;;;;;;;;;;;6.08;83.75;96771.22;5897092;24;19983;-76
2023/03/12 10:36:23;;;;;;;;;;;;;;;6.16;84.22;96756.28;5875292;24;20317;-76
2023/03/12 10:40:05;;;;;;;;;;;;;;;6.18;84.08;96744.97;5898419;24;19963;-76
2023/03/12 10:54:43;;;;;;;;;;;;;;;6.01;84.33;96734.47;5870927;24;19919;-76
2023/03/12 10:58:43;;;;;;;;;;;;;;;6.10;83.81;96730.69;5857998;24;19992;-75
2023/03/12 11:01:18;;;;;;;;;;;;;;;6.10;84.51;96717.78;5829500;24;19943;-75
2023/03/12 11:04:54;;;;;;;;;;;;;;;6.10;84.24;96718.63;5900257;24;19923;-75
2023/03/12 11:08:41;;;;;;;;;;;;;;;6.12;84.53;96716.84;5915837;24;19919;-74
2023/03/12 11:12:51;;;;;;;;;;;;;;;6.17;84.66;96725.25;5915359;24;20368;-76
2023/03/12 11:33:45;;;;;;;;;;;;;;;6.08;83.76;96706.66;5898023;24;20038;-76
2023/03/12 11:42:21;;;;;;;;;;;;;;;6.05;84.88;96702.47;5833511;24;20348;-76
2023/03/12 11:50:35;;;;;;;;;;;;;;;6.11;84.77;96694.50;5844826;24;19970;-76
2023/03/12 11:55:10;;;;;;;;;;;;;;;6.09;84.28;96696.31;5845025;24;19935;-75
2023/03/12 12:06:30;;;;;;;;;;;;;;;6.11;84.25;96673.00;6042415;23;19969;-76
2023/03/12 12:09:03;;;;;;;;;;;;;;;6.17;84.87;96670.16;6079175;23;19917;-79
2023/03/12 12:11:50;;;;;;;;;;;;;;;6.17;84.36;96670.16;6068206;23;19921;-76
2023/03/12 12:14:34;;;;;;;;;;;;;;;6.16;84.29;96665.91;6067752;23;19930;-78
2023/03/12 12:18:10;;;;;;;;;;;;;;;6.15;84.10;96678.00;6065673;23;19914;-74
2023/03/12 12:22:29;;;;;;;;;;;;;;;6.14;84.84;96694.38;6008087;23;20366;-74
2023/03/12 12:26:43;;;;;;;;;;;;;;;6.00;84.04;96709.56;5841360;24;19970;-76
2023/03/12 12:46:00;;;;;;;;;;;;;;;4.26;82.92;96797.31;5896981;24;19935;-75
2023/03/12 12:58:36;;;;;;;;;;;;;;;3.66;83.64;96833.38;5923893;24;19959;-77
2023/03/12 13:02:47;;;;;;;;;;;;;;;3.38;83.29;96847.00;5980202;24;19926;-78
2023/03/12 13:15:03;;;;;;;;;;;;;;;3.27;84.36;96893.56;5952572;24;20029;-76
2023/03/12 13:40:30;;;;;;;;;;;;;;;1.93;82.46;96954.75;5925237;24;19979;-76
2023/03/12 13:43:10;;;;;;;;;;;;;;;1.73;82.77;96943.19;6000177;23;19926;-77
2023/03/12 13:46:00;;;;;;;;;;;;;;;1.68;83.56;96952.66;6007874;23;19922;-76
2023/03/12 13:48:33;;;;;;;;;;;;;;;1.62;83.06;96958.75;6005297;23;19934;-76
2023/03/12 13:51:23;;;;;;;;;;;;;;;1.61;82.96;96967.31;6018253;23;19918;-79
2023/03/12 13:53:51;;;;;;;;;;;;;;;1.65;83.89;96973.25;6041751;23;20406;-76
2023/03/12 13:56:38;;;;;;;;;;;;;;;1.67;83.48;96980.91;6067567;23;19953;-75
2023/03/12 13:59:43;;;;;;;;;;;;;;;1.50;83.47;96989.75;6048924;23;20354;-76
2023/03/12 14:02:30;;;;;;;;;;;;;;;1.44;82.69;97003.50;6067163;23;19921;-77
2023/03/12 14:23:19;;;;;;;;;;;;;;;0.85;83.71;97073.56;6009379;23;20269;-77
2023/03/12 15:19:24;;;;;;;;;;;;;;;-0.10;83.38;97239.13;6013864;23;19917;-79
2023/03/12 15:32:15;;;;;;;;;;;;;;;-0.38;83.11;97315.97;6067825;23;19924;-80
2023/03/12 15:36:42;;;;;;;;;;;;;;;-0.64;82.43;97333.13;6065793;23;19995;-79
2023/03/12 15:57:55;;;;;;;;;;;;;;;-0.96;83.96;97455.78;6065760;23;19924;-77
2023/03/12 16:05:56;;;;;;;;;;;;;;;-1.09;83.70;97470.25;6017951;23;19974;-78
2023/03/12 16:09:59;;;;;;;;;;;;;;;-1.14;84.17;97492.34;6036604;23;19977;-81
2023/03/12 16:13:31;;;;;;;;;;;;;;;-1.10;84.00;97505.13;6049732;23;19973;-77
2023/03/12 16:17:55;;;;;;;;;;;;;;;-1.10;83.89;97527.25;6009528;23;20351;-76
2023/03/12 16:22:19;;;;;;;;;;;;;;;-1.14;84.16;97548.50;6066073;23;19924;-75
2023/03/12 16:30:47;;;;;;;;;;;;;;;-1.18;84.08;97578.28;6066409;23;19928;-77
2023/03/12 16:35:00;;;;;;;;;;;;;;;-1.16;84.12;97591.03;6008239;23;19929;-76
2023/03/12 16:56:38;;;;;;;;;;;;;;;-1.37;83.32;97679.44;5976718;23;20001;-75
2023/03/12 17:25:00;;;;;;;;;;;;;;;-1.44;83.07;97774.69;5897750;24;20027;-76
2023/03/12 17:33:30;;;;;;;;;;;;;;;-1.34;82.31;97817.28;5850145;24;19928;-72
2023/03/12 17:40:27;;;;;;;;;;;;;;;-1.44;82.69;97852.06;5845000;24;20428;-75
2023/03/12 19:00:00;;;;;;;;;;;;;;;-1.78;81.53;98070.25;5946600;24;20466;-75
2023/03/12 19:04:14;;;;;;;;;;;;;;;-1.92;81.23;98087.91;5969137;23;19929;-75
